sensor_id;sensor_type;location;lat;lon;timestamp;temperature;humidity
38183;DHT22;23991;52.430;10.586;2022-09-29T00:00:09;9.40;76.80
38183;DHT22;23991;52.430;10.586;2022-09-29T00:02:34;9.40;77.00
38183;DHT22;23991;52.430;10.586;2022-09-29T00:05:00;9.30;77.10
38183;DHT22;23991;52.430;10.586;2022-09-29T00:07:27;9.30;77.40
38183;DHT22;23991;52.430;10.586;2022-09-29T00:09:53;9.30;77.70
38183;DHT22;23991;52.430;10.586;2022-09-29T00:12:19;9.30;78.00
38183;DHT22;23991;52.430;10.586;2022-09-29T00:14:44;9.30;78.30
38183;DHT22;23991;52.430;10.586;2022-09-29T00:17:10;9.30;78.40
38183;DHT22;23991;52.430;10.586;2022-09-29T00:19:35;9.30;78.70
38183;DHT22;23991;52.430;10.586;2022-09-29T00:22:01;9.30;78.90
38183;DHT22;23991;52.430;10.586;2022-09-29T00:24:27;9.30;79.00
38183;DHT22;23991;52.430;10.586;2022-09-29T00:26:53;9.30;79.10
38183;DHT22;23991;52.430;10.586;2022-09-29T00:29:18;9.30;79.20
38183;DHT22;23991;52.430;10.586;2022-09-29T00:31:44;9.30;79.10
38183;DHT22;23991;52.430;10.586;2022-09-29T00:34:09;9.30;79.00
38183;DHT22;23991;52.430;10.586;2022-09-29T00:36:35;9.30;79.10
38183;DHT22;23991;52.430;10.586;2022-09-29T00:39:00;9.20;79.10
38183;DHT22;23991;52.430;10.586;2022-09-29T00:41:29;9.20;79.20
38183;DHT22;23991;52.430;10.586;2022-09-29T00:52:20;9.10;78.80
38183;DHT22;23991;52.430;10.586;2022-09-29T00:54:57;9.10;78.50
38183;DHT22;23991;52.430;10.586;2022-09-29T00:57:32;9.10;78.20
38183;DHT22;23991;52.430;10.586;2022-09-29T01:02:33;9.00;78.10
38183;DHT22;23991;52.430;10.586;2022-09-29T01:05:01;9.00;78.00
38183;DHT22;23991;52.430;10.586;2022-09-29T01:07:28;9.00;78.30
38183;DHT22;23991;52.430;10.586;2022-09-29T01:09:54;9.00;78.30
38183;DHT22;23991;52.430;10.586;2022-09-29T01:12:21;9.00;78.30
38183;DHT22;23991;52.430;10.586;2022-09-29T01:14:48;8.90;78.20
38183;DHT22;23991;52.430;10.586;2022-09-29T01:17:14;8.90;78.10
38183;DHT22;23991;52.430;10.586;2022-09-29T01:25:47;8.80;77.40
38183;DHT22;23991;52.430;10.586;2022-09-29T01:31:10;8.70;77.10
38183;DHT22;23991;52.430;10.586;2022-09-29T01:41:56;8.60;77.00
38183;DHT22;23991;52.430;10.586;2022-09-29T01:47:12;8.50;77.10
38183;DHT22;23991;52.430;10.586;2022-09-29T01:49:44;8.50;76.90
38183;DHT22;23991;52.430;10.586;2022-09-29T01:52:17;8.50;76.80
38183;DHT22;23991;52.430;10.586;2022-09-29T01:54:53;8.50;76.70
38183;DHT22;23991;52.430;10.586;2022-09-29T01:57:38;8.50;77.00
38183;DHT22;23991;52.430;10.586;2022-09-29T02:00:09;8.40;76.70
38183;DHT22;23991;52.430;10.586;2022-09-29T02:02:53;8.30;76.40
38183;DHT22;23991;52.430;10.586;2022-09-29T02:05:30;8.30;76.40
38183;DHT22;23991;52.430;10.586;2022-09-29T02:08:06;8.30;76.80
38183;DHT22;23991;52.430;10.586;2022-09-29T02:10:40;8.30;76.60
38183;DHT22;23991;52.430;10.586;2022-09-29T02:13:12;8.30;76.40
38183;DHT22;23991;52.430;10.586;2022-09-29T02:15:44;8.20;76.60
38183;DHT22;23991;52.430;10.586;2022-09-29T02:18:16;8.20;76.50
38183;DHT22;23991;52.430;10.586;2022-09-29T02:20:43;8.20;76.40
38183;DHT22;23991;52.430;10.586;2022-09-29T02:23:10;8.10;76.50
38183;DHT22;23991;52.430;10.586;2022-09-29T02:25:37;8.10;76.60
38183;DHT22;23991;52.430;10.586;2022-09-29T02:28:05;8.10;76.80
38183;DHT22;23991;52.430;10.586;2022-09-29T02:30:31;8.10;76.80
38183;DHT22;23991;52.430;10.586;2022-09-29T02:32:56;8.00;76.80
38183;DHT22;23991;52.430;10.586;2022-09-29T02:35:49;8.00;76.80
38183;DHT22;23991;52.430;10.586;2022-09-29T02:38:42;8.00;76.80
38183;DHT22;23991;52.430;10.586;2022-09-29T02:44:00;7.90;76.70
38183;DHT22;23991;52.430;10.586;2022-09-29T02:46:41;7.90;76.80
38183;DHT22;23991;52.430;10.586;2022-09-29T02:57:53;7.90;76.60
38183;DHT22;23991;52.430;10.586;2022-09-29T03:00:21;7.90;76.90
38183;DHT22;23991;52.430;10.586;2022-09-29T03:02:47;7.80;77.00
38183;DHT22;23991;52.430;10.586;2022-09-29T03:05:15;7.80;77.10
38183;DHT22;23991;52.430;10.586;2022-09-29T03:07:42;7.80;77.10
38183;DHT22;23991;52.430;10.586;2022-09-29T03:10:09;7.80;76.90
38183;DHT22;23991;52.430;10.586;2022-09-29T03:12:35;7.80;77.00
38183;DHT22;23991;52.430;10.586;2022-09-29T03:15:01;7.70;77.00
38183;DHT22;23991;52.430;10.586;2022-09-29T03:17:27;7.70;76.80
38183;DHT22;23991;52.430;10.586;2022-09-29T03:19:53;7.70;76.70
38183;DHT22;23991;52.430;10.586;2022-09-29T03:22:18;7.60;76.70
38183;DHT22;23991;52.430;10.586;2022-09-29T03:24:44;7.70;76.80
38183;DHT22;23991;52.430;10.586;2022-09-29T03:27:10;7.70;77.00
38183;DHT22;23991;52.430;10.586;2022-09-29T03:29:36;7.60;77.00
38183;DHT22;23991;52.430;10.586;2022-09-29T03:32:03;7.70;77.10
38183;DHT22;23991;52.430;10.586;2022-09-29T03:34:30;7.70;77.40
38183;DHT22;23991;52.430;10.586;2022-09-29T03:36:56;7.60;77.70
38183;DHT22;23991;52.430;10.586;2022-09-29T03:39:22;7.60;78.10
38183;DHT22;23991;52.430;10.586;2022-09-29T03:41:48;7.60;77.90
38183;DHT22;23991;52.430;10.586;2022-09-29T03:44:14;7.70;77.90
38183;DHT22;23991;52.430;10.586;2022-09-29T03:46:40;7.70;78.40
38183;DHT22;23991;52.430;10.586;2022-09-29T03:49:09;7.70;78.50
38183;DHT22;23991;52.430;10.586;2022-09-29T03:51:36;7.70;78.70
38183;DHT22;23991;52.430;10.586;2022-09-29T03:54:02;7.70;78.70
38183;DHT22;23991;52.430;10.586;2022-09-29T03:56:28;7.60;78.90
38183;DHT22;23991;52.430;10.586;2022-09-29T03:58:53;7.60;78.80
38183;DHT22;23991;52.430;10.586;2022-09-29T04:01:19;7.60;78.60
38183;DHT22;23991;52.430;10.586;2022-09-29T04:03:45;7.60;78.50
38183;DHT22;23991;52.430;10.586;2022-09-29T04:06:11;7.60;78.40
38183;DHT22;23991;52.430;10.586;2022-09-29T04:08:37;7.60;78.30
38183;DHT22;23991;52.430;10.586;2022-09-29T04:11:02;7.60;78.30
38183;DHT22;23991;52.430;10.586;2022-09-29T04:13:28;7.60;78.30
38183;DHT22;23991;52.430;10.586;2022-09-29T04:16:02;7.60;78.70
38183;DHT22;23991;52.430;10.586;2022-09-29T04:18:28;7.60;78.80
38183;DHT22;23991;52.430;10.586;2022-09-29T04:20:54;7.60;79.10
38183;DHT22;23991;52.430;10.586;2022-09-29T04:23:21;7.60;79.80
38183;DHT22;23991;52.430;10.586;2022-09-29T04:25:48;7.60;80.60
38183;DHT22;23991;52.430;10.586;2022-09-29T04:28:13;7.70;81.20
38183;DHT22;23991;52.430;10.586;2022-09-29T04:30:39;7.70;81.60
38183;DHT22;23991;52.430;10.586;2022-09-29T04:33:05;7.60;81.50
38183;DHT22;23991;52.430;10.586;2022-09-29T04:35:30;7.60;82.00
38183;DHT22;23991;52.430;10.586;2022-09-29T04:37:56;7.70;82.30
38183;DHT22;23991;52.430;10.586;2022-09-29T04:40:24;7.70;82.50
38183;DHT22;23991;52.430;10.586;2022-09-29T04:42:50;7.70;82.60
38183;DHT22;23991;52.430;10.586;2022-09-29T04:45:16;7.70;82.60
38183;DHT22;23991;52.430;10.586;2022-09-29T04:47:41;7.70;82.80
38183;DHT22;23991;52.430;10.586;2022-09-29T04:50:07;7.70;82.90
38183;DHT22;23991;52.430;10.586;2022-09-29T04:52:34;7.70;83.10
38183;DHT22;23991;52.430;10.586;2022-09-29T04:55:01;7.70;83.10
38183;DHT22;23991;52.430;10.586;2022-09-29T04:57:27;7.70;83.20
38183;DHT22;23991;52.430;10.586;2022-09-29T04:59:52;7.70;83.20
38183;DHT22;23991;52.430;10.586;2022-09-29T05:02:18;7.70;83.00
38183;DHT22;23991;52.430;10.586;2022-09-29T05:04:45;7.70;82.90
38183;DHT22;23991;52.430;10.586;2022-09-29T05:07:12;7.70;82.80
38183;DHT22;23991;52.430;10.586;2022-09-29T05:09:38;7.70;82.40
38183;DHT22;23991;52.430;10.586;2022-09-29T05:12:04;7.60;82.00
38183;DHT22;23991;52.430;10.586;2022-09-29T05:14:30;7.60;82.30
38183;DHT22;23991;52.430;10.586;2022-09-29T05:16:56;7.60;82.30
38183;DHT22;23991;52.430;10.586;2022-09-29T05:19:22;7.60;82.20
38183;DHT22;23991;52.430;10.586;2022-09-29T05:21:47;7.60;82.00
38183;DHT22;23991;52.430;10.586;2022-09-29T05:24:13;7.60;81.80
38183;DHT22;23991;52.430;10.586;2022-09-29T05:26:38;7.60;81.50
38183;DHT22;23991;52.430;10.586;2022-09-29T05:29:04;7.70;81.50
38183;DHT22;23991;52.430;10.586;2022-09-29T05:31:30;7.70;81.50
38183;DHT22;23991;52.430;10.586;2022-09-29T05:33:56;7.70;81.80
38183;DHT22;23991;52.430;10.586;2022-09-29T05:36:23;7.80;82.00
38183;DHT22;23991;52.430;10.586;2022-09-29T05:38:49;7.80;82.10
38183;DHT22;23991;52.430;10.586;2022-09-29T05:41:14;7.90;82.20
38183;DHT22;23991;52.430;10.586;2022-09-29T05:43:42;8.00;82.10
38183;DHT22;23991;52.430;10.586;2022-09-29T05:46:09;8.10;82.00
38183;DHT22;23991;52.430;10.586;2022-09-29T05:48:35;8.20;81.90
38183;DHT22;23991;52.430;10.586;2022-09-29T05:51:10;8.20;81.80
38183;DHT22;23991;52.430;10.586;2022-09-29T05:53:36;8.20;81.40
38183;DHT22;23991;52.430;10.586;2022-09-29T05:56:10;8.30;81.30
38183;DHT22;23991;52.430;10.586;2022-09-29T05:58:37;8.40;81.00
38183;DHT22;23991;52.430;10.586;2022-09-29T06:01:18;8.40;80.70
38183;DHT22;23991;52.430;10.586;2022-09-29T06:03:45;8.50;80.40
38183;DHT22;23991;52.430;10.586;2022-09-29T06:06:20;8.50;80.00
38183;DHT22;23991;52.430;10.586;2022-09-29T06:08:46;8.70;79.80
38183;DHT22;23991;52.430;10.586;2022-09-29T06:11:14;8.80;79.60
38183;DHT22;23991;52.430;10.586;2022-09-29T06:13:42;8.90;79.30
38183;DHT22;23991;52.430;10.586;2022-09-29T06:16:09;9.00;78.70
38183;DHT22;23991;52.430;10.586;2022-09-29T06:18:35;9.10;78.40
38183;DHT22;23991;52.430;10.586;2022-09-29T06:21:08;9.20;78.20
38183;DHT22;23991;52.430;10.586;2022-09-29T06:23:34;9.30;77.80
38183;DHT22;23991;52.430;10.586;2022-09-29T06:26:03;9.50;77.50
38183;DHT22;23991;52.430;10.586;2022-09-29T06:28:30;9.60;76.90
38183;DHT22;23991;52.430;10.586;2022-09-29T06:31:03;9.70;76.50
38183;DHT22;23991;52.430;10.586;2022-09-29T06:33:30;9.80;76.30
38183;DHT22;23991;52.430;10.586;2022-09-29T06:35:58;9.90;75.90
38183;DHT22;23991;52.430;10.586;2022-09-29T06:38:43;10.00;75.80
38183;DHT22;23991;52.430;10.586;2022-09-29T06:41:09;10.20;75.40
38183;DHT22;23991;52.430;10.586;2022-09-29T06:43:35;10.40;75.00
38183;DHT22;23991;52.430;10.586;2022-09-29T06:46:01;10.60;74.60
38183;DHT22;23991;52.430;10.586;2022-09-29T06:48:27;10.70;74.00
38183;DHT22;23991;52.430;10.586;2022-09-29T06:50:54;10.80;73.80
38183;DHT22;23991;52.430;10.586;2022-09-29T06:53:21;11.00;73.70
38183;DHT22;23991;52.430;10.586;2022-09-29T06:55:54;11.10;73.30
38183;DHT22;23991;52.430;10.586;2022-09-29T06:58:21;11.20;73.30
38183;DHT22;23991;52.430;10.586;2022-09-29T07:00:47;11.50;72.50
38183;DHT22;23991;52.430;10.586;2022-09-29T07:03:13;11.60;71.70
38183;DHT22;23991;52.430;10.586;2022-09-29T07:05:38;11.70;71.40
38183;DHT22;23991;52.430;10.586;2022-09-29T07:08:04;12.00;70.80
38183;DHT22;23991;52.430;10.586;2022-09-29T07:10:30;12.10;70.10
38183;DHT22;23991;52.430;10.586;2022-09-29T07:12:55;12.50;69.10
38183;DHT22;23991;52.430;10.586;2022-09-29T07:15:21;12.80;68.80
38183;DHT22;23991;52.430;10.586;2022-09-29T07:17:50;13.10;67.50
38183;DHT22;23991;52.430;10.586;2022-09-29T07:20:16;13.40;66.40
38183;DHT22;23991;52.430;10.586;2022-09-29T07:22:45;13.60;65.90
38183;DHT22;23991;52.430;10.586;2022-09-29T07:25:11;14.20;64.60
38183;DHT22;23991;52.430;10.586;2022-09-29T07:27:37;14.40;63.60
38183;DHT22;23991;52.430;10.586;2022-09-29T07:30:03;14.70;63.20
38183;DHT22;23991;52.430;10.586;2022-09-29T07:32:29;14.90;61.60
38183;DHT22;23991;52.430;10.586;2022-09-29T07:34:57;14.80;62.70
38183;DHT22;23991;52.430;10.586;2022-09-29T07:37:24;15.10;61.30
38183;DHT22;23991;52.430;10.586;2022-09-29T07:39:50;15.20;61.30
38183;DHT22;23991;52.430;10.586;2022-09-29T07:42:19;15.60;60.30
38183;DHT22;23991;52.430;10.586;2022-09-29T07:44:46;15.80;59.20
38183;DHT22;23991;52.430;10.586;2022-09-29T07:47:11;16.10;59.60
38183;DHT22;23991;52.430;10.586;2022-09-29T07:49:38;16.30;58.20
38183;DHT22;23991;52.430;10.586;2022-09-29T07:52:04;16.30;57.60
38183;DHT22;23991;52.430;10.586;2022-09-29T07:54:30;16.60;56.80
38183;DHT22;23991;52.430;10.586;2022-09-29T07:56:56;17.10;55.50
38183;DHT22;23991;52.430;10.586;2022-09-29T07:59:25;17.30;54.90
38183;DHT22;23991;52.430;10.586;2022-09-29T08:01:51;17.30;54.60
38183;DHT22;23991;52.430;10.586;2022-09-29T08:04:17;17.50;53.60
38183;DHT22;23991;52.430;10.586;2022-09-29T08:06:43;17.80;53.90
38183;DHT22;23991;52.430;10.586;2022-09-29T08:09:08;17.70;54.00
38183;DHT22;23991;52.430;10.586;2022-09-29T08:11:39;18.00;53.30
38183;DHT22;23991;52.430;10.586;2022-09-29T08:14:06;18.30;52.20
38183;DHT22;23991;52.430;10.586;2022-09-29T08:16:32;18.40;51.70
38183;DHT22;23991;52.430;10.586;2022-09-29T08:18:59;18.80;50.90
38183;DHT22;23991;52.430;10.586;2022-09-29T08:21:25;18.80;50.80
38183;DHT22;23991;52.430;10.586;2022-09-29T08:23:51;19.10;50.90
38183;DHT22;23991;52.430;10.586;2022-09-29T08:26:19;19.40;49.70
38183;DHT22;23991;52.430;10.586;2022-09-29T08:28:45;19.70;49.00
38183;DHT22;23991;52.430;10.586;2022-09-29T08:31:13;19.80;48.70
38183;DHT22;23991;52.430;10.586;2022-09-29T08:33:39;19.90;48.10
38183;DHT22;23991;52.430;10.586;2022-09-29T08:36:05;19.80;48.60
38183;DHT22;23991;52.430;10.586;2022-09-29T08:38:40;19.90;48.50
38183;DHT22;23991;52.430;10.586;2022-09-29T08:44:31;20.50;46.80
38183;DHT22;23991;52.430;10.586;2022-09-29T08:49:31;21.30;45.90
38183;DHT22;23991;52.430;10.586;2022-09-29T08:52:03;21.60;44.80
38183;DHT22;23991;52.430;10.586;2022-09-29T08:54:33;22.00;43.60
38183;DHT22;23991;52.430;10.586;2022-09-29T08:57:00;22.10;43.60
38183;DHT22;23991;52.430;10.586;2022-09-29T08:59:27;22.30;43.30
38183;DHT22;23991;52.430;10.586;2022-09-29T09:18:23;23.60;41.20
38183;DHT22;23991;52.430;10.586;2022-09-29T09:21:09;23.60;39.80
38183;DHT22;23991;52.430;10.586;2022-09-29T09:26:41;24.10;39.10
38183;DHT22;23991;52.430;10.586;2022-09-29T09:29:32;23.70;39.50
38183;DHT22;23991;52.430;10.586;2022-09-29T09:34:51;23.30;40.30
38183;DHT22;23991;52.430;10.586;2022-09-29T09:37:22;23.20;41.20
38183;DHT22;23991;52.430;10.586;2022-09-29T09:42:32;22.50;42.70
38183;DHT22;23991;52.430;10.586;2022-09-29T09:47:41;22.20;42.40
38183;DHT22;23991;52.430;10.586;2022-09-29T09:50:13;21.70;43.40
38183;DHT22;23991;52.430;10.586;2022-09-29T09:52:46;21.60;44.20
38183;DHT22;23991;52.430;10.586;2022-09-29T09:55:22;21.40;44.60
38183;DHT22;23991;52.430;10.586;2022-09-29T09:57:56;21.30;44.80
38183;DHT22;23991;52.430;10.586;2022-09-29T10:00:29;21.50;43.90
38183;DHT22;23991;52.430;10.586;2022-09-29T10:03:01;21.80;43.40
38183;DHT22;23991;52.430;10.586;2022-09-29T10:05:40;22.30;42.50
38183;DHT22;23991;52.430;10.586;2022-09-29T10:08:10;22.10;42.80
38183;DHT22;23991;52.430;10.586;2022-09-29T10:10:39;21.60;43.30
38183;DHT22;23991;52.430;10.586;2022-09-29T10:13:11;21.50;43.80
38183;DHT22;23991;52.430;10.586;2022-09-29T10:16:29;21.40;44.10
38183;DHT22;23991;52.430;10.586;2022-09-29T10:18:35;21.50;43.90
38183;DHT22;23991;52.430;10.586;2022-09-29T10:21:01;21.30;44.20
38183;DHT22;23991;52.430;10.586;2022-09-29T10:23:34;20.70;45.20
38183;DHT22;23991;52.430;10.586;2022-09-29T10:26:07;20.60;45.70
38183;DHT22;23991;52.430;10.586;2022-09-29T10:29:01;20.60;46.10
38183;DHT22;23991;52.430;10.586;2022-09-29T10:31:29;20.60;46.20
38183;DHT22;23991;52.430;10.586;2022-09-29T10:34:15;21.00;45.20
38183;DHT22;23991;52.430;10.586;2022-09-29T10:42:26;23.30;41.20
38183;DHT22;23991;52.430;10.586;2022-09-29T10:45:15;23.90;39.00
38183;DHT22;23991;52.430;10.586;2022-09-29T10:47:45;23.60;39.70
38183;DHT22;23991;52.430;10.586;2022-09-29T10:50:12;23.00;40.80
38183;DHT22;23991;52.430;10.586;2022-09-29T10:52:42;23.00;41.00
38183;DHT22;23991;52.430;10.586;2022-09-29T10:55:16;22.80;42.20
38183;DHT22;23991;52.430;10.586;2022-09-29T10:57:44;22.80;41.30
38183;DHT22;23991;52.430;10.586;2022-09-29T11:00:27;23.10;40.80
38183;DHT22;23991;52.430;10.586;2022-09-29T11:05:53;23.90;40.20
38183;DHT22;23991;52.430;10.586;2022-09-29T11:08:20;24.00;39.00
38183;DHT22;23991;52.430;10.586;2022-09-29T11:11:03;24.60;39.00
38183;DHT22;23991;52.430;10.586;2022-09-29T11:16:26;25.70;36.40
38183;DHT22;23991;52.430;10.586;2022-09-29T11:19:03;26.50;34.20
38183;DHT22;23991;52.430;10.586;2022-09-29T11:30:15;26.60;34.10
38183;DHT22;23991;52.430;10.586;2022-09-29T11:35:54;26.20;34.50
38183;DHT22;23991;52.430;10.586;2022-09-29T11:38:40;25.80;34.90
38183;DHT22;23991;52.430;10.586;2022-09-29T11:41:16;25.00;35.80
38183;DHT22;23991;52.430;10.586;2022-09-29T11:43:54;24.70;37.00
38183;DHT22;23991;52.430;10.586;2022-09-29T11:52:18;24.90;36.60
38183;DHT22;23991;52.430;10.586;2022-09-29T12:14:34;26.90;31.70
38183;DHT22;23991;52.430;10.586;2022-09-29T12:17:05;27.10;31.10
38183;DHT22;23991;52.430;10.586;2022-09-29T12:19:38;26.90;32.00
38183;DHT22;23991;52.430;10.586;2022-09-29T12:22:08;27.10;31.80
38183;DHT22;23991;52.430;10.586;2022-09-29T12:27:07;27.80;30.70
38183;DHT22;23991;52.430;10.586;2022-09-29T12:29:47;28.20;30.60
38183;DHT22;23991;52.430;10.586;2022-09-29T12:32:22;28.60;30.50
38183;DHT22;23991;52.430;10.586;2022-09-29T12:37:37;27.60;31.10
38183;DHT22;23991;52.430;10.586;2022-09-29T12:40:19;26.80;32.50
38183;DHT22;23991;52.430;10.586;2022-09-29T12:42:57;26.00;33.70
38183;DHT22;23991;52.430;10.586;2022-09-29T12:50:55;25.00;34.90
38183;DHT22;23991;52.430;10.586;2022-09-29T12:53:35;25.80;33.90
38183;DHT22;23991;52.430;10.586;2022-09-29T12:56:09;26.10;32.50
38183;DHT22;23991;52.430;10.586;2022-09-29T12:59:14;27.20;31.10
38183;DHT22;23991;52.430;10.586;2022-09-29T13:01:39;27.30;29.90
38183;DHT22;23991;52.430;10.586;2022-09-29T13:04:39;27.50;30.50
38183;DHT22;23991;52.430;10.586;2022-09-29T13:07:54;27.60;30.10
38183;DHT22;23991;52.430;10.586;2022-09-29T13:15:51;27.90;30.20
38183;DHT22;23991;52.430;10.586;2022-09-29T13:18:39;28.20;29.20
38183;DHT22;23991;52.430;10.586;2022-09-29T13:27:10;28.20;28.80
38183;DHT22;23991;52.430;10.586;2022-09-29T13:29:51;27.50;30.00
38183;DHT22;23991;52.430;10.586;2022-09-29T13:32:19;27.90;29.90
38183;DHT22;23991;52.430;10.586;2022-09-29T13:34:54;27.70;29.70
38183;DHT22;23991;52.430;10.586;2022-09-29T13:37:24;27.70;29.80
38183;DHT22;23991;52.430;10.586;2022-09-29T13:40:03;27.00;30.10
38183;DHT22;23991;52.430;10.586;2022-09-29T13:42:40;26.50;31.10
38183;DHT22;23991;52.430;10.586;2022-09-29T13:47:45;25.60;32.40
38183;DHT22;23991;52.430;10.586;2022-09-29T13:55:53;24.50;35.20
38183;DHT22;23991;52.430;10.586;2022-09-29T13:58:26;24.20;36.00
38183;DHT22;23991;52.430;10.586;2022-09-29T14:00:54;23.40;37.10
38183;DHT22;23991;52.430;10.586;2022-09-29T14:03:33;23.30;37.40
38183;DHT22;23991;52.430;10.586;2022-09-29T14:06:15;23.30;37.30
38183;DHT22;23991;52.430;10.586;2022-09-29T14:08:50;23.50;37.00
38183;DHT22;23991;52.430;10.586;2022-09-29T14:11:28;23.70;37.10
38183;DHT22;23991;52.430;10.586;2022-09-29T14:14:23;23.70;36.10
38183;DHT22;23991;52.430;10.586;2022-09-29T14:16:57;23.80;36.60
38183;DHT22;23991;52.430;10.586;2022-09-29T14:19:47;24.40;35.20
38183;DHT22;23991;52.430;10.586;2022-09-29T14:27:57;25.20;33.60
38183;DHT22;23991;52.430;10.586;2022-09-29T14:38:16;24.10;35.60
38183;DHT22;23991;52.430;10.586;2022-09-29T14:41:17;23.70;36.00
38183;DHT22;23991;52.430;10.586;2022-09-29T14:49:34;23.10;37.70
38183;DHT22;23991;52.430;10.586;2022-09-29T14:55:15;22.80;38.30
38183;DHT22;23991;52.430;10.586;2022-09-29T15:06:16;22.20;39.10
38183;DHT22;23991;52.430;10.586;2022-09-29T15:08:53;22.30;39.30
38183;DHT22;23991;52.430;10.586;2022-09-29T15:11:34;22.30;39.50
38183;DHT22;23991;52.430;10.586;2022-09-29T15:14:21;22.50;39.20
38183;DHT22;23991;52.430;10.586;2022-09-29T15:27:37;22.60;38.80
38183;DHT22;23991;52.430;10.586;2022-09-29T15:30:04;22.50;39.30
38183;DHT22;23991;52.430;10.586;2022-09-29T15:32:30;22.50;39.50
38183;DHT22;23991;52.430;10.586;2022-09-29T15:35:02;22.30;39.80
38183;DHT22;23991;52.430;10.586;2022-09-29T15:37:55;22.10;40.00
38183;DHT22;23991;52.430;10.586;2022-09-29T15:40:23;22.00;39.90
38183;DHT22;23991;52.430;10.586;2022-09-29T15:42:51;22.00;39.80
38183;DHT22;23991;52.430;10.586;2022-09-29T15:45:25;21.70;40.40
38183;DHT22;23991;52.430;10.586;2022-09-29T15:48:05;21.70;40.40
38183;DHT22;23991;52.430;10.586;2022-09-29T15:50:40;21.70;40.50
38183;DHT22;23991;52.430;10.586;2022-09-29T15:53:06;21.80;40.40
38183;DHT22;23991;52.430;10.586;2022-09-29T15:55:33;21.80;40.70
38183;DHT22;23991;52.430;10.586;2022-09-29T15:57:59;22.20;40.60
38183;DHT22;23991;52.430;10.586;2022-09-29T16:03:02;21.90;41.70
38183;DHT22;23991;52.430;10.586;2022-09-29T16:05:34;21.80;41.40
38183;DHT22;23991;52.430;10.586;2022-09-29T16:08:04;21.70;41.50
38183;DHT22;23991;52.430;10.586;2022-09-29T16:10:32;21.70;42.10
38183;DHT22;23991;52.430;10.586;2022-09-29T16:13:04;21.50;42.50
38183;DHT22;23991;52.430;10.586;2022-09-29T16:15:36;21.30;42.00
38183;DHT22;23991;52.430;10.586;2022-09-29T16:18:08;21.00;42.70
38183;DHT22;23991;52.430;10.586;2022-09-29T16:20:35;20.70;43.60
38183;DHT22;23991;52.430;10.586;2022-09-29T16:23:28;20.80;44.30
38183;DHT22;23991;52.430;10.586;2022-09-29T16:26:07;20.70;44.30
38183;DHT22;23991;52.430;10.586;2022-09-29T16:28:37;20.50;43.80
38183;DHT22;23991;52.430;10.586;2022-09-29T16:31:05;20.50;44.30
38183;DHT22;23991;52.430;10.586;2022-09-29T16:33:35;20.50;44.70
38183;DHT22;23991;52.430;10.586;2022-09-29T16:36:17;20.20;45.60
38183;DHT22;23991;52.430;10.586;2022-09-29T16:38:45;19.90;46.80
38183;DHT22;23991;52.430;10.586;2022-09-29T16:41:19;19.80;46.90
38183;DHT22;23991;52.430;10.586;2022-09-29T16:43:45;19.50;48.10
38183;DHT22;23991;52.430;10.586;2022-09-29T16:46:20;19.50;48.30
38183;DHT22;23991;52.430;10.586;2022-09-29T16:48:47;19.20;49.70
38183;DHT22;23991;52.430;10.586;2022-09-29T16:51:16;19.00;50.10
38183;DHT22;23991;52.430;10.586;2022-09-29T16:53:43;19.00;50.50
38183;DHT22;23991;52.430;10.586;2022-09-29T16:56:24;18.80;51.00
38183;DHT22;23991;52.430;10.586;2022-09-29T16:59:10;18.80;51.00
38183;DHT22;23991;52.430;10.586;2022-09-29T17:01:37;18.60;51.20
38183;DHT22;23991;52.430;10.586;2022-09-29T17:04:03;18.50;51.60
38183;DHT22;23991;52.430;10.586;2022-09-29T17:06:29;18.20;52.80
38183;DHT22;23991;52.430;10.586;2022-09-29T17:08:56;18.10;52.80
38183;DHT22;23991;52.430;10.586;2022-09-29T17:11:22;18.00;53.10
38183;DHT22;23991;52.430;10.586;2022-09-29T17:13:48;17.80;53.90
38183;DHT22;23991;52.430;10.586;2022-09-29T17:16:14;17.80;53.80
38183;DHT22;23991;52.430;10.586;2022-09-29T17:18:46;17.70;54.10
38183;DHT22;23991;52.430;10.586;2022-09-29T17:21:13;17.50;54.10
38183;DHT22;23991;52.430;10.586;2022-09-29T17:23:39;17.40;54.40
38183;DHT22;23991;52.430;10.586;2022-09-29T17:26:22;17.30;54.80
38183;DHT22;23991;52.430;10.586;2022-09-29T17:29:07;17.20;55.00
38183;DHT22;23991;52.430;10.586;2022-09-29T17:31:32;17.00;55.40
38183;DHT22;23991;52.430;10.586;2022-09-29T17:33:58;16.80;55.60
38183;DHT22;23991;52.430;10.586;2022-09-29T17:36:23;16.80;55.60
38183;DHT22;23991;52.430;10.586;2022-09-29T17:38:50;16.70;56.40
38183;DHT22;23991;52.430;10.586;2022-09-29T17:41:16;16.70;57.00
38183;DHT22;23991;52.430;10.586;2022-09-29T17:43:43;16.60;57.10
38183;DHT22;23991;52.430;10.586;2022-09-29T17:46:11;16.60;57.10
38183;DHT22;23991;52.430;10.586;2022-09-29T17:48:38;16.40;57.50
38183;DHT22;23991;52.430;10.586;2022-09-29T17:51:05;16.20;57.90
38183;DHT22;23991;52.430;10.586;2022-09-29T17:53:33;15.90;58.20
38183;DHT22;23991;52.430;10.586;2022-09-29T17:55:59;15.80;58.70
38183;DHT22;23991;52.430;10.586;2022-09-29T17:58:27;15.70;58.80
38183;DHT22;23991;52.430;10.586;2022-09-29T18:00:53;15.60;58.70
38183;DHT22;23991;52.430;10.586;2022-09-29T18:03:22;15.40;59.20
38183;DHT22;23991;52.430;10.586;2022-09-29T18:05:53;15.40;59.70
38183;DHT22;23991;52.430;10.586;2022-09-29T18:08:26;15.20;60.20
38183;DHT22;23991;52.430;10.586;2022-09-29T18:10:57;15.10;59.90
38183;DHT22;23991;52.430;10.586;2022-09-29T18:13:25;14.80;60.50
38183;DHT22;23991;52.430;10.586;2022-09-29T18:15:57;14.80;61.30
38183;DHT22;23991;52.430;10.586;2022-09-29T18:18:23;14.70;61.00
38183;DHT22;23991;52.430;10.586;2022-09-29T18:20:49;14.70;61.30
38183;DHT22;23991;52.430;10.586;2022-09-29T18:23:16;14.60;61.30
38183;DHT22;23991;52.430;10.586;2022-09-29T18:25:42;14.40;61.50
38183;DHT22;23991;52.430;10.586;2022-09-29T18:28:12;14.30;62.20
38183;DHT22;23991;52.430;10.586;2022-09-29T18:30:40;14.30;62.10
38183;DHT22;23991;52.430;10.586;2022-09-29T18:33:12;14.20;62.40
38183;DHT22;23991;52.430;10.586;2022-09-29T18:35:39;14.10;62.50
38183;DHT22;23991;52.430;10.586;2022-09-29T18:38:08;14.00;62.80
38183;DHT22;23991;52.430;10.586;2022-09-29T18:40:34;13.80;62.90
38183;DHT22;23991;52.430;10.586;2022-09-29T18:43:00;13.80;62.80
38183;DHT22;23991;52.430;10.586;2022-09-29T18:45:28;13.70;63.80
38183;DHT22;23991;52.430;10.586;2022-09-29T18:47:59;13.70;64.40
38183;DHT22;23991;52.430;10.586;2022-09-29T18:50:31;13.60;65.00
38183;DHT22;23991;52.430;10.586;2022-09-29T18:52:57;13.60;65.10
38183;DHT22;23991;52.430;10.586;2022-09-29T18:55:25;13.50;64.90
38183;DHT22;23991;52.430;10.586;2022-09-29T18:57:52;13.40;64.70
38183;DHT22;23991;52.430;10.586;2022-09-29T19:00:21;13.40;64.90